createdAt,value
2018-12-08T00:01:16.038Z,45.37
2018-12-08T00:03:45.075Z,45.80
2018-12-08T00:06:14.111Z,48.60
2018-12-08T00:08:43.057Z,46.57
2018-12-08T00:11:11.945Z,45.57
2018-12-08T00:13:41.036Z,45.20
2018-12-08T00:16:09.935Z,46.97
2018-12-08T00:18:38.956Z,45.80
2018-12-08T00:21:07.873Z,37.67
2018-12-08T00:23:36.925Z,32.53
2018-12-08T00:26:05.817Z,32.90
2018-12-08T00:28:34.841Z,30.90
2018-12-08T00:31:15.037Z,33.00
2018-12-08T00:33:43.938Z,43.03
2018-12-08T00:36:12.956Z,47.13
2018-12-08T00:38:41.856Z,28.63
2018-12-08T00:41:10.861Z,27.27
2018-12-08T00:43:39.769Z,26.67
2018-12-08T00:46:08.681Z,25.27
2018-12-08T00:48:37.594Z,24.33
2018-12-08T00:51:06.506Z,25.00
2018-12-08T00:53:35.554Z,23.80
2018-12-08T00:56:04.573Z,23.63
2018-12-08T00:58:33.517Z,23.87
2018-12-08T01:01:02.630Z,23.70
2018-12-08T01:03:31.529Z,23.00
2018-12-08T01:06:00.426Z,23.97
2018-12-08T01:08:29.321Z,24.60
2018-12-08T01:10:58.265Z,26.20
2018-12-08T01:13:27.925Z,35.30
2018-12-08T01:15:56.832Z,47.57
2018-12-08T01:18:25.754Z,48.43
2018-12-08T01:20:54.695Z,47.90
2018-12-08T01:23:23.488Z,41.53
2018-12-08T01:25:52.414Z,40.27
2018-12-08T01:28:21.405Z,38.90
2018-12-08T01:30:50.393Z,41.23
2018-12-08T01:33:19.437Z,35.67
2018-12-08T01:35:48.461Z,34.93
2018-12-08T01:38:17.467Z,32.83
2018-12-08T01:40:46.284Z,29.77
2018-12-08T01:43:15.242Z,30.07
2018-12-08T01:45:44.173Z,26.70
2018-12-08T01:48:13.105Z,25.00
2018-12-08T01:50:42.036Z,24.70
2018-12-08T01:53:11.053Z,26.13
2018-12-08T01:55:39.985Z,25.67
2018-12-08T01:58:08.909Z,24.13
2018-12-08T02:00:37.929Z,23.57
2018-12-08T02:03:06.839Z,24.37
2018-12-08T02:05:35.749Z,25.10
2018-12-08T02:08:04.677Z,24.03
2018-12-08T02:10:33.597Z,25.50
2018-12-08T02:13:02.521Z,25.50
2018-12-08T02:15:31.598Z,25.30
2018-12-08T02:18:00.557Z,25.40
2018-12-08T02:20:29.498Z,27.80
2018-12-08T02:22:58.410Z,26.70
2018-12-08T02:25:27.445Z,27.80
2018-12-08T02:27:56.370Z,28.70
2018-12-08T02:30:25.332Z,28.10
2018-12-08T02:32:54.297Z,27.90
2018-12-08T02:35:23.121Z,27.73
2018-12-08T02:37:52.067Z,29.47
2018-12-08T02:40:21.095Z,29.60
2018-12-08T02:42:50.032Z,28.40
2018-12-08T02:45:19.088Z,29.57
2018-12-08T02:47:48.008Z,30.53
2018-12-08T02:50:16.990Z,29.63
2018-12-08T02:52:45.806Z,28.10
2018-12-08T02:55:14.769Z,28.50
2018-12-08T02:57:43.795Z,28.57
2018-12-08T03:00:12.676Z,29.37
2018-12-08T03:02:41.701Z,28.77
2018-12-08T03:05:10.775Z,30.60
2018-12-08T03:07:39.717Z,31.90
2018-12-08T03:10:08.859Z,32.83
2018-12-08T03:12:37.718Z,34.10
2018-12-08T03:15:06.909Z,33.73
2018-12-08T03:17:36.013Z,34.93
2018-12-08T03:20:05.196Z,34.23
2018-12-08T03:22:34.410Z,31.67
2018-12-08T03:25:03.582Z,31.73
2018-12-08T03:27:32.585Z,30.10
2018-12-08T03:30:01.543Z,28.43
2018-12-08T03:32:30.602Z,27.57
2018-12-08T03:34:59.545Z,25.57
2018-12-08T03:37:28.453Z,25.57
2018-12-08T03:39:57.353Z,26.00
2018-12-08T03:42:26.241Z,25.07
2018-12-08T03:44:55.225Z,26.30
2018-12-08T03:47:24.629Z,25.37
2018-12-08T03:49:53.538Z,25.97
2018-12-08T03:52:22.442Z,26.27
2018-12-08T03:54:51.341Z,27.57
2018-12-08T03:57:20.258Z,29.30
2018-12-08T03:59:49.154Z,26.63
2018-12-08T04:02:18.040Z,26.47
2018-12-08T04:04:47.454Z,27.73
2018-12-08T04:07:16.534Z,27.63
2018-12-08T04:09:45.546Z,27.33
2018-12-08T04:12:14.372Z,27.30
2018-12-08T04:14:43.315Z,27.73
2018-12-08T04:17:12.338Z,26.07
2018-12-08T04:19:41.281Z,25.80
2018-12-08T04:22:10.082Z,24.30
2018-12-08T04:24:39.076Z,25.60
2018-12-08T04:27:08.082Z,26.53
2018-12-08T04:29:37.086Z,32.90
2018-12-08T04:32:06.223Z,34.20
2018-12-08T04:34:35.224Z,34.83
2018-12-08T04:37:04.131Z,33.77
2018-12-08T04:39:33.246Z,35.60
2018-12-08T04:42:02.218Z,35.33
2018-12-08T04:44:31.229Z,33.73
2018-12-08T04:47:00.149Z,33.37
2018-12-08T04:49:29.173Z,31.97
2018-12-08T04:51:58.053Z,34.23
2018-12-08T04:54:26.952Z,34.90
2018-12-08T04:56:55.868Z,37.40
2018-12-08T04:59:24.755Z,35.10
2018-12-08T05:01:53.947Z,33.67
2018-12-08T05:04:22.823Z,34.33
2018-12-08T05:06:51.745Z,32.90
2018-12-08T05:09:20.650Z,33.33
2018-12-08T05:11:49.453Z,34.80
2018-12-08T05:14:18.498Z,33.87
2018-12-08T05:16:47.427Z,31.47
2018-12-08T05:19:16.373Z,31.67
2018-12-08T05:21:45.304Z,30.37
2018-12-08T05:24:14.217Z,30.70
2018-12-08T05:26:43.150Z,32.87
2018-12-08T05:29:12.097Z,32.80
2018-12-08T05:31:41.135Z,34.20
2018-12-08T05:34:10.097Z,35.27
2018-12-08T05:36:39.012Z,37.97
2018-12-08T05:39:08.037Z,36.00
2018-12-08T05:41:36.847Z,35.50
2018-12-08T05:44:05.874Z,35.07
2018-12-08T05:46:34.764Z,36.43
2018-12-08T05:49:03.661Z,33.07
2018-12-08T05:51:32.568Z,35.63
2018-12-08T05:54:01.773Z,35.17
2018-12-08T05:56:30.801Z,35.83
2018-12-08T05:58:59.877Z,34.50
2018-12-08T06:01:28.907Z,35.70
2018-12-08T06:03:57.700Z,37.40
2018-12-08T06:06:27.005Z,37.67
2018-12-08T06:08:55.796Z,37.33
2018-12-08T06:11:24.867Z,40.03
2018-12-08T06:13:54.050Z,41.77
2018-12-08T06:16:23.243Z,44.47
2018-12-08T06:18:52.337Z,44.93
2018-12-08T06:21:33.657Z,48.77
2018-12-08T06:24:02.732Z,48.33
2018-12-08T06:26:35.131Z,46.57
2018-12-08T06:29:04.278Z,47.17
2018-12-08T06:31:33.568Z,44.47
2018-12-08T06:34:02.816Z,44.10
2018-12-08T06:36:32.105Z,42.40
2018-12-08T06:39:00.893Z,40.03
2018-12-08T06:41:30.296Z,37.97
2018-12-08T06:43:59.389Z,34.67
2018-12-08T06:46:28.589Z,34.43
2018-12-08T06:48:57.610Z,31.67
2018-12-08T06:51:26.679Z,29.37
2018-12-08T06:53:56.218Z,31.53
2018-12-08T06:56:25.361Z,35.87
2018-12-08T06:58:54.245Z,36.37
2018-12-08T07:01:23.253Z,34.73
2018-12-08T07:03:52.316Z,34.57
2018-12-08T07:06:21.124Z,33.00
2018-12-08T07:08:50.237Z,31.27
2018-12-08T07:11:19.178Z,29.43
2018-12-08T07:13:47.990Z,29.60
2018-12-08T07:16:16.975Z,29.93
2018-12-08T07:18:46.008Z,28.27
2018-12-08T07:21:14.957Z,27.10
2018-12-08T07:23:43.848Z,27.83
2018-12-08T07:26:12.885Z,32.47
2018-12-08T07:28:41.897Z,38.23
2018-12-08T07:31:10.902Z,35.20
2018-12-08T07:33:39.898Z,31.33
2018-12-08T07:36:08.905Z,34.77
2018-12-08T07:38:37.896Z,29.90
2018-12-08T07:41:06.886Z,27.03
2018-12-08T07:43:35.880Z,24.20
2018-12-08T07:46:04.896Z,22.33
2018-12-08T07:48:33.798Z,23.63
2018-12-08T07:51:02.721Z,30.07
2018-12-08T07:53:31.633Z,29.53
2018-12-08T07:56:00.464Z,25.33
2018-12-08T07:58:29.357Z,25.33
2018-12-08T08:00:58.273Z,25.13
2018-12-08T08:03:27.186Z,25.80
2018-12-08T08:05:56.088Z,32.60
2018-12-08T08:08:24.984Z,30.10
2018-12-08T08:10:53.865Z,27.83
2018-12-08T08:13:22.686Z,29.50
2018-12-08T08:15:51.504Z,28.93
2018-12-08T08:18:20.401Z,28.00
2018-12-08T08:20:49.329Z,26.77
2018-12-08T08:23:18.354Z,24.87
2018-12-08T08:25:47.374Z,24.90
2018-12-08T08:28:16.309Z,22.93
2018-12-08T08:30:45.332Z,23.13
2018-12-08T08:33:14.423Z,22.00
2018-12-08T08:35:43.316Z,23.60
2018-12-08T08:38:12.196Z,24.50
2018-12-08T08:40:41.099Z,23.43
2018-12-08T08:43:09.886Z,25.50
2018-12-08T08:45:38.878Z,25.33
2018-12-08T08:48:07.653Z,25.10
2018-12-08T08:50:36.444Z,25.27
2018-12-08T08:53:05.905Z,25.40
2018-12-08T08:55:34.914Z,23.73
2018-12-08T08:58:03.832Z,27.37
2018-12-08T09:00:33.021Z,25.73
2018-12-08T09:03:02.157Z,22.67
2018-12-08T09:05:31.261Z,22.77
2018-12-08T09:08:00.165Z,26.10
2018-12-08T09:10:29.083Z,27.73
2018-12-08T09:12:57.973Z,25.13
2018-12-08T09:15:26.977Z,26.00
2018-12-08T09:17:55.787Z,28.03
2018-12-08T09:20:24.794Z,23.87
2018-12-08T09:22:53.714Z,23.23
2018-12-08T09:25:25.468Z,23.30
2018-12-08T09:27:54.366Z,23.47
2018-12-08T09:30:23.281Z,24.50
2018-12-08T09:32:52.265Z,25.57
2018-12-08T09:35:21.278Z,40.77
2018-12-08T09:37:50.208Z,38.63
2018-12-08T09:40:19.508Z,36.50
2018-12-08T09:42:48.406Z,35.00
2018-12-08T09:45:17.410Z,36.27
2018-12-08T09:47:46.529Z,37.40
2018-12-08T09:50:15.425Z,41.33
2018-12-08T09:52:44.241Z,38.83
2018-12-08T09:55:13.268Z,41.70
2018-12-08T09:57:42.686Z,38.60
2018-12-08T10:00:11.598Z,41.87
2018-12-08T10:02:40.514Z,33.57
2018-12-08T10:05:09.542Z,31.57
2018-12-08T10:07:38.417Z,33.33
2018-12-08T10:10:07.893Z,34.03
2018-12-08T10:12:36.681Z,31.10
2018-12-08T10:15:05.749Z,33.17
2018-12-08T10:17:34.740Z,30.77
2018-12-08T10:20:03.864Z,28.77
2018-12-08T10:22:32.961Z,30.50
2018-12-08T10:25:01.879Z,28.93
2018-12-08T10:27:30.913Z,28.03
2018-12-08T10:29:59.861Z,28.80
2018-12-08T10:32:28.764Z,29.80
2018-12-08T10:34:57.684Z,27.87
2018-12-08T10:37:26.620Z,29.77
2018-12-08T10:39:55.613Z,27.93
2018-12-08T10:42:24.598Z,30.17
2018-12-08T10:44:53.593Z,28.83
2018-12-08T10:47:22.408Z,30.27
2018-12-08T10:49:51.805Z,32.47
2018-12-08T10:52:20.722Z,33.97
2018-12-08T10:54:49.671Z,38.27
2018-12-08T10:57:18.684Z,43.53
2018-12-08T10:59:47.625Z,41.00
2018-12-08T11:02:21.988Z,39.50
2018-12-08T11:04:50.913Z,40.23
2018-12-08T11:07:19.852Z,38.60
2018-12-08T11:09:48.889Z,39.90
2018-12-08T11:12:17.797Z,39.27
2018-12-08T11:14:46.689Z,38.77
2018-12-08T11:17:15.669Z,40.53
2018-12-08T11:19:44.641Z,37.20
2018-12-08T11:22:13.546Z,36.37
2018-12-08T11:24:42.459Z,37.97
2018-12-08T11:27:11.440Z,36.53
2018-12-08T11:29:40.321Z,39.23
2018-12-08T11:32:09.216Z,38.70
2018-12-08T11:34:38.229Z,37.07
2018-12-08T11:37:07.051Z,38.43
2018-12-08T11:39:35.869Z,36.30
2018-12-08T11:42:04.932Z,37.73
2018-12-08T11:44:34.118Z,41.27
2018-12-08T11:47:03.129Z,35.93
2018-12-08T11:49:32.029Z,38.37
2018-12-08T11:52:01.036Z,39.03
2018-12-08T11:54:29.940Z,42.87
2018-12-08T11:56:58.869Z,36.70
2018-12-08T11:59:27.796Z,35.70
2018-12-08T12:01:56.712Z,42.80
2018-12-08T12:04:25.626Z,41.97
2018-12-08T12:06:54.641Z,45.27
2018-12-08T12:09:23.609Z,47.23
2018-12-08T12:11:52.421Z,46.83
2018-12-08T12:14:56.710Z,41.90
2018-12-08T12:17:25.686Z,36.70
2018-12-08T12:19:54.595Z,34.43
2018-12-08T12:22:23.510Z,36.30
2018-12-08T12:24:52.445Z,36.10
2018-12-08T12:27:21.402Z,35.67
2018-12-08T12:29:50.325Z,35.40
2018-12-08T12:32:19.258Z,33.00
2018-12-08T12:34:48.310Z,30.90
2018-12-08T12:37:17.111Z,32.97
2018-12-08T12:39:46.037Z,32.20
2018-12-08T12:42:14.952Z,31.07
2018-12-08T12:44:43.969Z,30.47
2018-12-08T12:47:12.758Z,31.67
2018-12-08T12:49:41.565Z,30.17
2018-12-08T12:52:10.494Z,29.73
2018-12-08T12:54:39.526Z,29.20
2018-12-08T12:57:08.425Z,27.63
2018-12-08T12:59:37.239Z,31.20
2018-12-08T13:02:06.249Z,29.10
2018-12-08T13:04:35.140Z,30.17
2018-12-08T13:07:04.100Z,29.10
2018-12-08T13:09:32.917Z,29.03
2018-12-08T13:12:03.069Z,31.53
2018-12-08T13:14:31.998Z,33.30
2018-12-08T13:17:00.926Z,32.20
2018-12-08T13:19:29.959Z,38.23
2018-12-08T13:21:58.895Z,36.50
2018-12-08T13:24:31.362Z,35.43
2018-12-08T13:27:00.280Z,38.60
2018-12-08T13:29:29.278Z,37.20
2018-12-08T13:31:58.217Z,38.23
2018-12-08T13:34:28.377Z,38.03
2018-12-08T13:36:57.301Z,37.60
2018-12-08T13:39:26.343Z,36.03
2018-12-08T13:41:55.581Z,38.03
2018-12-08T13:44:41.009Z,38.90
2018-12-08T13:47:09.940Z,39.73
2018-12-08T13:49:39.142Z,38.47
2018-12-08T13:52:08.054Z,41.27
2018-12-08T13:54:46.394Z,39.93
2018-12-08T13:57:15.344Z,42.27
2018-12-08T13:59:50.206Z,38.50
2018-12-08T14:02:19.134Z,43.47
2018-12-08T14:04:48.477Z,39.77
2018-12-08T14:07:17.652Z,39.10
2018-12-08T14:09:46.566Z,35.20
2018-12-08T14:12:15.891Z,32.00
2018-12-08T14:14:44.913Z,36.70
2018-12-08T14:17:13.921Z,31.40
2018-12-08T14:19:42.837Z,30.00
2018-12-08T14:22:12.921Z,36.27
2018-12-08T14:24:42.165Z,39.33
2018-12-08T14:27:11.102Z,37.93
2018-12-08T14:29:40.046Z,38.80
2018-12-08T14:32:09.081Z,34.93
2018-12-08T14:34:38.025Z,33.40
2018-12-08T14:37:06.945Z,35.53
2018-12-08T14:39:35.856Z,33.43
2018-12-08T14:42:04.870Z,32.93
2018-12-08T14:44:33.846Z,33.33
2018-12-08T14:47:02.797Z,36.43
2018-12-08T14:49:31.750Z,37.33
2018-12-08T14:52:00.657Z,40.03
2018-12-08T14:54:29.969Z,39.77
2018-12-08T14:56:58.985Z,43.10
2018-12-08T14:59:28.032Z,41.97
2018-12-08T15:01:56.997Z,46.10
2018-12-08T15:04:25.926Z,47.20
2018-12-08T15:06:54.853Z,47.43
2018-12-08T15:09:23.744Z,45.67
2018-12-08T15:11:52.653Z,50.27
2018-12-08T15:14:21.666Z,67.73
2018-12-08T15:16:50.712Z,72.30
2018-12-08T15:19:19.704Z,92.47
2018-12-08T15:21:48.560Z,88.07
2018-12-08T15:24:17.461Z,80.30
2018-12-08T15:26:46.359Z,77.10
2018-12-08T15:29:15.272Z,76.20
2018-12-08T15:31:44.094Z,83.20
2018-12-08T15:34:12.922Z,84.00
2018-12-08T15:36:41.827Z,78.97
2018-12-08T15:39:10.776Z,83.77
2018-12-08T15:41:39.697Z,80.53
2018-12-08T15:44:08.664Z,84.20
2018-12-08T15:46:37.614Z,87.97
2018-12-08T15:49:06.670Z,83.60
2018-12-08T15:51:35.569Z,84.47
2018-12-08T15:54:04.400Z,88.60
2018-12-08T15:56:33.724Z,92.57
2018-12-08T15:59:03.039Z,92.43
2018-12-08T16:01:31.967Z,95.47
2018-12-08T16:04:00.965Z,95.13
2018-12-08T16:06:30.005Z,97.87
2018-12-08T16:08:58.917Z,98.53
2018-12-08T16:11:27.905Z,94.33
2018-12-08T16:13:56.822Z,100.83
2018-12-08T16:16:25.777Z,102.50
2018-12-08T16:18:54.857Z,103.60
2018-12-08T16:21:23.873Z,106.27
2018-12-08T16:23:52.817Z,106.23
2018-12-08T16:26:21.850Z,111.77
2018-12-08T16:28:50.872Z,125.60
2018-12-08T16:31:19.897Z,128.30
2018-12-08T16:33:48.834Z,128.33
2018-12-08T16:36:17.651Z,133.97
2018-12-08T16:38:46.622Z,166.50
2018-12-08T16:41:15.613Z,170.20
2018-12-08T16:43:44.456Z,150.70
2018-12-08T16:46:13.362Z,166.80
2018-12-08T16:48:42.292Z,149.07
2018-12-08T16:51:11.088Z,113.37
2018-12-08T16:53:40.100Z,100.13
2018-12-08T16:56:08.925Z,105.17
2018-12-08T16:58:37.829Z,108.70
2018-12-08T17:01:07.141Z,104.10
2018-12-08T17:03:36.461Z,104.77
2018-12-08T17:06:05.405Z,98.00
2018-12-08T17:08:34.357Z,96.40
2018-12-08T17:11:03.290Z,91.43
2018-12-08T17:13:32.418Z,92.70
2018-12-08T17:16:02.424Z,96.23
2018-12-08T17:18:31.564Z,90.00
2018-12-08T17:21:00.586Z,88.70
2018-12-08T17:23:29.625Z,94.97
2018-12-08T17:25:58.649Z,103.10
2018-12-08T17:28:27.678Z,101.90
2018-12-08T17:30:56.585Z,99.40
2018-12-08T17:33:25.506Z,94.90
2018-12-08T17:35:54.537Z,96.83
2018-12-08T17:38:23.461Z,94.73
2018-12-08T17:40:52.666Z,101.17
2018-12-08T17:43:21.582Z,99.10
2018-12-08T17:45:50.528Z,97.67
2018-12-08T17:48:19.457Z,99.03
2018-12-08T17:50:48.556Z,99.23
2018-12-08T17:53:17.549Z,101.67
2018-12-08T17:55:46.769Z,100.97
2018-12-08T17:58:15.742Z,104.13
2018-12-08T18:00:44.576Z,100.43
2018-12-08T18:03:13.496Z,99.17
2018-12-08T18:05:42.420Z,98.40
2018-12-08T18:08:11.489Z,100.53
2018-12-08T18:10:40.505Z,94.67
2018-12-08T18:13:09.693Z,103.10
2018-12-08T18:15:38.742Z,120.67
2018-12-08T18:18:07.765Z,121.43
2018-12-08T18:20:36.648Z,118.57
2018-12-08T18:23:05.458Z,123.57
2018-12-08T18:25:35.500Z,118.30
2018-12-08T18:28:04.524Z,115.50
2018-12-08T18:30:33.425Z,106.97
2018-12-08T18:33:02.326Z,101.17
2018-12-08T18:35:31.697Z,96.23
2018-12-08T18:38:00.609Z,98.60
2018-12-08T18:40:29.622Z,99.27
2018-12-08T18:42:58.539Z,100.23
2018-12-08T18:45:27.488Z,99.13
2018-12-08T18:47:56.403Z,101.23
2018-12-08T18:50:25.421Z,88.30
2018-12-08T18:52:54.400Z,82.73
2018-12-08T18:55:23.301Z,74.63
2018-12-08T18:57:52.076Z,77.17
2018-12-08T19:00:20.998Z,75.40
2018-12-08T19:02:49.914Z,75.10
2018-12-08T19:05:18.838Z,72.40
2018-12-08T19:07:47.929Z,75.43
2018-12-08T19:10:16.956Z,77.50
2018-12-08T19:12:46.051Z,75.90
2018-12-08T19:15:15.016Z,75.03
2018-12-08T19:17:43.946Z,76.20
2018-12-08T19:20:13.020Z,76.07
2018-12-08T19:22:42.033Z,74.43
2018-12-08T19:25:10.969Z,75.93
2018-12-08T19:27:39.931Z,74.73
2018-12-08T19:30:09.856Z,74.30
2018-12-08T19:32:38.926Z,78.67
2018-12-08T19:35:08.064Z,82.23
2018-12-08T19:37:37.115Z,85.70
2018-12-08T19:40:07.652Z,84.50
2018-12-08T19:42:36.668Z,80.30
2018-12-08T19:45:05.694Z,76.93
2018-12-08T19:47:34.637Z,80.00
2018-12-08T19:50:03.858Z,79.83
2018-12-08T19:52:32.787Z,81.03
2018-12-08T19:55:01.763Z,83.53
2018-12-08T19:57:30.858Z,81.77
2018-12-08T19:59:59.817Z,81.73
2018-12-08T20:02:28.865Z,79.50
2018-12-08T20:04:57.787Z,79.53
2018-12-08T20:07:26.710Z,74.13
2018-12-08T20:09:55.514Z,76.70
2018-12-08T20:12:24.482Z,73.00
2018-12-08T20:14:53.453Z,73.93
2018-12-08T20:17:22.397Z,73.20
2018-12-08T20:19:51.477Z,71.43
2018-12-08T20:22:20.741Z,70.33
2018-12-08T20:24:49.706Z,70.73
2018-12-08T20:27:18.624Z,70.40
2018-12-08T20:29:47.553Z,71.83
2018-12-08T20:32:16.481Z,68.47
2018-12-08T20:34:45.382Z,70.90
2018-12-08T20:37:14.336Z,70.83
2018-12-08T20:39:43.278Z,71.60
2018-12-08T20:42:12.309Z,76.20
2018-12-08T20:44:41.134Z,73.17
2018-12-08T20:47:10.040Z,73.77
2018-12-08T20:49:39.902Z,72.03
2018-12-08T20:52:08.811Z,77.37
2018-12-08T20:54:37.935Z,78.07
2018-12-08T20:57:06.746Z,76.07
2018-12-08T20:59:35.666Z,75.27
2018-12-08T21:02:04.591Z,77.53
2018-12-08T21:04:33.493Z,76.40
2018-12-08T21:07:02.415Z,83.93
2018-12-08T21:09:31.375Z,78.90
2018-12-08T21:12:00.278Z,88.70
2018-12-08T21:14:29.194Z,83.47
2018-12-08T21:16:58.014Z,81.23
2018-12-08T21:19:27.060Z,76.03
2018-12-08T21:21:55.981Z,69.60
2018-12-08T21:24:24.964Z,60.20
2018-12-08T21:26:54.058Z,65.53
2018-12-08T21:29:23.071Z,65.87
2018-12-08T21:31:52.180Z,65.30
2018-12-08T21:34:21.886Z,66.47
2018-12-08T21:36:50.794Z,71.07
2018-12-08T21:39:19.605Z,70.40
2018-12-08T21:41:48.621Z,73.70
2018-12-08T21:44:17.535Z,81.60
2018-12-08T21:46:46.457Z,83.93
2018-12-08T21:49:15.393Z,86.83
2018-12-08T21:51:44.293Z,94.03
2018-12-08T21:54:13.205Z,92.17
2018-12-08T21:56:42.062Z,91.47
2018-12-08T21:59:11.053Z,87.70
2018-12-08T22:01:40.002Z,84.53
2018-12-08T22:04:08.854Z,82.77
2018-12-08T22:06:37.870Z,76.57
2018-12-08T22:09:07.129Z,82.17
2018-12-08T22:11:36.116Z,77.17
2018-12-08T22:14:05.172Z,76.07
2018-12-08T22:16:34.101Z,74.07
2018-12-08T22:19:02.917Z,70.87
2018-12-08T22:21:31.940Z,69.80
2018-12-08T22:24:00.873Z,75.57
2018-12-08T22:26:29.812Z,75.90
2018-12-08T22:28:58.758Z,79.10
2018-12-08T22:31:27.718Z,74.43
2018-12-08T22:33:56.809Z,73.47
2018-12-08T22:36:25.652Z,70.97
2018-12-08T22:38:54.661Z,65.33
2018-12-08T22:41:23.580Z,69.80
2018-12-08T22:43:52.601Z,68.37
2018-12-08T22:46:22.036Z,69.13
2018-12-08T22:48:51.001Z,68.60
2018-12-08T22:51:19.909Z,66.07
2018-12-08T22:53:48.790Z,68.83
2018-12-08T22:56:17.787Z,70.17
2018-12-08T22:58:46.668Z,70.83
2018-12-08T23:01:15.621Z,70.33
2018-12-08T23:03:44.597Z,73.53
2018-12-08T23:06:13.626Z,72.17
2018-12-08T23:08:42.428Z,68.70
2018-12-08T23:11:11.397Z,67.63
2018-12-08T23:13:40.197Z,69.00
2018-12-08T23:16:09.092Z,67.73
2018-12-08T23:18:38.039Z,67.97
2018-12-08T23:21:06.948Z,68.00
2018-12-08T23:23:35.860Z,67.87
2018-12-08T23:26:04.773Z,65.00
2018-12-08T23:28:33.686Z,63.93
2018-12-08T23:31:02.714Z,65.57
2018-12-08T23:33:31.877Z,63.63
2018-12-08T23:36:00.785Z,63.17
2018-12-08T23:38:29.810Z,67.43
2018-12-08T23:40:58.625Z,65.07
2018-12-08T23:43:27.749Z,66.60
2018-12-08T23:45:56.758Z,64.33
2018-12-08T23:48:25.785Z,67.67
2018-12-08T23:50:54.688Z,68.67
2018-12-08T23:53:23.821Z,72.87
2018-12-08T23:55:52.656Z,70.27
2018-12-08T23:58:21.464Z,64.70
